sensor_id;sensor_type;location;lat;lon;timestamp;pressure;altitude;pressure_sealevel;temperature;humidity
28306;BME280;7516;43.570;1.448;2023-08-31T00:00:25;99691.03;;;17.85;82.86
28306;BME280;7516;43.570;1.448;2023-08-31T00:02:53;99690.44;;;17.83;83.06
28306;BME280;7516;43.570;1.448;2023-08-31T00:05:21;99699.25;;;17.77;83.13
28306;BME280;7516;43.570;1.448;2023-08-31T00:07:48;99693.59;;;17.74;83.50
28306;BME280;7516;43.570;1.448;2023-08-31T00:10:16;99698.28;;;17.72;83.41
28306;BME280;7516;43.570;1.448;2023-08-31T00:12:43;99693.41;;;17.68;83.38
28306;BME280;7516;43.570;1.448;2023-08-31T00:15:12;99695.09;;;17.63;83.28
28306;BME280;7516;43.570;1.448;2023-08-31T00:17:39;99696.31;;;17.60;83.77
28306;BME280;7516;43.570;1.448;2023-08-31T00:20:08;99693.53;;;17.55;84.07
28306;BME280;7516;43.570;1.448;2023-08-31T00:22:38;99693.72;;;17.54;84.17
28306;BME280;7516;43.570;1.448;2023-08-31T00:25:06;99697.63;;;17.51;84.13
28306;BME280;7516;43.570;1.448;2023-08-31T00:27:34;99698.88;;;17.49;84.12
28306;BME280;7516;43.570;1.448;2023-08-31T00:30:04;99695.63;;;17.47;84.98
28306;BME280;7516;43.570;1.448;2023-08-31T00:32:34;99702.16;;;17.44;85.00
28306;BME280;7516;43.570;1.448;2023-08-31T00:35:02;99699.72;;;17.43;84.86
28306;BME280;7516;43.570;1.448;2023-08-31T00:37:30;99702.63;;;17.41;84.97
28306;BME280;7516;43.570;1.448;2023-08-31T00:39:57;99696.13;;;17.37;85.06
28306;BME280;7516;43.570;1.448;2023-08-31T00:42:25;99698.16;;;17.35;85.00
28306;BME280;7516;43.570;1.448;2023-08-31T00:44:52;99697.00;;;17.31;85.33
28306;BME280;7516;43.570;1.448;2023-08-31T00:47:20;99696.38;;;17.29;86.04
28306;BME280;7516;43.570;1.448;2023-08-31T00:49:50;99694.16;;;17.26;85.84
28306;BME280;7516;43.570;1.448;2023-08-31T00:52:18;99692.78;;;17.23;85.70
28306;BME280;7516;43.570;1.448;2023-08-31T00:54:46;99686.06;;;17.21;86.15
28306;BME280;7516;43.570;1.448;2023-08-31T00:57:15;99685.66;;;17.17;86.05
28306;BME280;7516;43.570;1.448;2023-08-31T00:59:42;99682.41;;;17.15;86.54
28306;BME280;7516;43.570;1.448;2023-08-31T01:02:15;99688.16;;;17.12;86.47
28306;BME280;7516;43.570;1.448;2023-08-31T01:04:53;99684.09;;;17.10;86.30
28306;BME280;7516;43.570;1.448;2023-08-31T01:07:32;99678.44;;;17.06;86.64
28306;BME280;7516;43.570;1.448;2023-08-31T01:10:07;99687.63;;;17.04;86.72
28306;BME280;7516;43.570;1.448;2023-08-31T01:12:49;99681.94;;;17.00;86.62
28306;BME280;7516;43.570;1.448;2023-08-31T01:15:18;99677.66;;;16.99;86.78
28306;BME280;7516;43.570;1.448;2023-08-31T01:17:48;99683.97;;;16.98;86.72
28306;BME280;7516;43.570;1.448;2023-08-31T01:20:28;99679.72;;;16.97;87.68
28306;BME280;7516;43.570;1.448;2023-08-31T01:23:02;99680.16;;;16.94;87.49
28306;BME280;7516;43.570;1.448;2023-08-31T01:25:33;99680.56;;;16.91;87.79
28306;BME280;7516;43.570;1.448;2023-08-31T01:28:01;99675.47;;;16.89;87.97
28306;BME280;7516;43.570;1.448;2023-08-31T01:30:30;99674.09;;;16.87;88.02
28306;BME280;7516;43.570;1.448;2023-08-31T01:32:58;99678.56;;;16.86;87.87
28306;BME280;7516;43.570;1.448;2023-08-31T01:35:26;99677.97;;;16.84;87.81
28306;BME280;7516;43.570;1.448;2023-08-31T01:37:58;99679.59;;;16.85;88.04
28306;BME280;7516;43.570;1.448;2023-08-31T01:40:33;99678.56;;;16.86;88.40
28306;BME280;7516;43.570;1.448;2023-08-31T01:43:03;99681.59;;;16.90;88.43
28306;BME280;7516;43.570;1.448;2023-08-31T01:45:32;99687.88;;;16.96;88.46
28306;BME280;7516;43.570;1.448;2023-08-31T01:48:00;99681.94;;;17.00;88.52
28306;BME280;7516;43.570;1.448;2023-08-31T01:50:28;99682.31;;;17.04;88.60
28306;BME280;7516;43.570;1.448;2023-08-31T01:52:55;99677.38;;;17.07;88.35
28306;BME280;7516;43.570;1.448;2023-08-31T01:55:23;99679.63;;;17.10;88.53
28306;BME280;7516;43.570;1.448;2023-08-31T01:57:52;99680.44;;;17.11;88.52
28306;BME280;7516;43.570;1.448;2023-08-31T02:00:20;99680.66;;;17.09;88.73
28306;BME280;7516;43.570;1.448;2023-08-31T02:02:48;99683.91;;;17.11;88.60
28306;BME280;7516;43.570;1.448;2023-08-31T02:05:15;99684.50;;;17.13;88.59
28306;BME280;7516;43.570;1.448;2023-08-31T02:07:43;99687.50;;;17.17;88.88
28306;BME280;7516;43.570;1.448;2023-08-31T02:10:10;99682.00;;;17.18;88.90
28306;BME280;7516;43.570;1.448;2023-08-31T02:12:38;99688.72;;;17.21;88.61
28306;BME280;7516;43.570;1.448;2023-08-31T02:15:07;99695.44;;;17.23;88.61
28306;BME280;7516;43.570;1.448;2023-08-31T02:17:35;99692.53;;;17.25;88.52
28306;BME280;7516;43.570;1.448;2023-08-31T02:20:04;99687.47;;;17.23;88.90
28306;BME280;7516;43.570;1.448;2023-08-31T02:22:34;99691.72;;;17.24;88.63
28306;BME280;7516;43.570;1.448;2023-08-31T02:25:02;99692.31;;;17.26;88.39
28306;BME280;7516;43.570;1.448;2023-08-31T02:27:29;99694.75;;;17.28;88.51
28306;BME280;7516;43.570;1.448;2023-08-31T02:29:57;99692.13;;;17.28;88.63
28306;BME280;7516;43.570;1.448;2023-08-31T02:32:26;99694.56;;;17.29;88.46
28306;BME280;7516;43.570;1.448;2023-08-31T02:34:53;99689.47;;;17.28;88.73
28306;BME280;7516;43.570;1.448;2023-08-31T02:37:21;99688.88;;;17.26;88.61
28306;BME280;7516;43.570;1.448;2023-08-31T02:39:49;99691.97;;;17.23;88.37
28306;BME280;7516;43.570;1.448;2023-08-31T02:42:16;99697.47;;;17.21;88.28
28306;BME280;7516;43.570;1.448;2023-08-31T02:44:43;99692.19;;;17.21;88.37
28306;BME280;7516;43.570;1.448;2023-08-31T02:47:11;99695.44;;;17.23;88.54
28306;BME280;7516;43.570;1.448;2023-08-31T02:49:40;99693.34;;;17.25;88.62
28306;BME280;7516;43.570;1.448;2023-08-31T02:52:07;99698.84;;;17.24;88.53
28306;BME280;7516;43.570;1.448;2023-08-31T02:54:35;99687.69;;;17.22;88.53
28306;BME280;7516;43.570;1.448;2023-08-31T02:57:02;99693.00;;;17.22;88.41
28306;BME280;7516;43.570;1.448;2023-08-31T02:59:30;99696.66;;;17.21;88.42
28306;BME280;7516;43.570;1.448;2023-08-31T03:02:01;99693.00;;;17.22;88.69
28306;BME280;7516;43.570;1.448;2023-08-31T03:04:29;99694.00;;;17.21;88.76
28306;BME280;7516;43.570;1.448;2023-08-31T03:06:58;99692.38;;;17.20;88.52
28306;BME280;7516;43.570;1.448;2023-08-31T03:09:25;99686.06;;;17.21;88.81
28306;BME280;7516;43.570;1.448;2023-08-31T03:11:53;99685.47;;;17.19;88.85
28306;BME280;7516;43.570;1.448;2023-08-31T03:14:21;99687.31;;;17.18;88.54
28306;BME280;7516;43.570;1.448;2023-08-31T03:16:49;99692.38;;;17.20;88.65
28306;BME280;7516;43.570;1.448;2023-08-31T03:19:16;99683.63;;;17.19;88.84
28306;BME280;7516;43.570;1.448;2023-08-31T03:21:44;99680.97;;;17.19;88.42
28306;BME280;7516;43.570;1.448;2023-08-31T03:24:13;99687.31;;;17.18;89.07
28306;BME280;7516;43.570;1.448;2023-08-31T03:26:40;99693.41;;;17.19;88.82
28306;BME280;7516;43.570;1.448;2023-08-31T03:29:07;99690.97;;;17.17;88.92
28306;BME280;7516;43.570;1.448;2023-08-31T03:31:35;99692.81;;;17.17;88.84
28306;BME280;7516;43.570;1.448;2023-08-31T03:34:02;99702.00;;;17.14;88.81
28306;BME280;7516;43.570;1.448;2023-08-31T03:36:30;99689.78;;;17.13;89.01
28306;BME280;7516;43.570;1.448;2023-08-31T03:38:57;99699.78;;;17.11;88.80
28306;BME280;7516;43.570;1.448;2023-08-31T03:41:26;99693.88;;;17.09;89.25
28306;BME280;7516;43.570;1.448;2023-08-31T03:43:54;99700.19;;;17.08;89.24
28306;BME280;7516;43.570;1.448;2023-08-31T03:46:21;99700.66;;;17.05;89.45
28306;BME280;7516;43.570;1.448;2023-08-31T03:48:49;99694.75;;;17.03;89.30
28306;BME280;7516;43.570;1.448;2023-08-31T03:51:16;99696.19;;;16.99;89.13
28306;BME280;7516;43.570;1.448;2023-08-31T03:53:44;99692.78;;;16.92;89.52
28306;BME280;7516;43.570;1.448;2023-08-31T03:56:11;99696.09;;;16.87;89.26
28306;BME280;7516;43.570;1.448;2023-08-31T03:58:40;99690.59;;;16.82;89.71
28306;BME280;7516;43.570;1.448;2023-08-31T04:01:07;99703.66;;;16.77;89.72
28306;BME280;7516;43.570;1.448;2023-08-31T04:03:36;99694.09;;;16.76;89.56
28306;BME280;7516;43.570;1.448;2023-08-31T04:06:03;99695.72;;;16.77;89.74
28306;BME280;7516;43.570;1.448;2023-08-31T04:08:31;99698.97;;;16.79;90.22
28306;BME280;7516;43.570;1.448;2023-08-31T04:10:59;99706.09;;;16.79;90.05
28306;BME280;7516;43.570;1.448;2023-08-31T04:13:26;99704.66;;;16.83;90.17
28306;BME280;7516;43.570;1.448;2023-08-31T04:15:55;99710.75;;;16.83;89.99
28306;BME280;7516;43.570;1.448;2023-08-31T04:18:22;99709.53;;;16.86;90.15
28306;BME280;7516;43.570;1.448;2023-08-31T04:20:52;99711.72;;;16.89;90.63
28306;BME280;7516;43.570;1.448;2023-08-31T04:23:20;99712.34;;;16.91;90.43
28306;BME280;7516;43.570;1.448;2023-08-31T04:25:48;99720.06;;;16.92;90.25
28306;BME280;7516;43.570;1.448;2023-08-31T04:28:17;99718.44;;;16.91;90.45
28306;BME280;7516;43.570;1.448;2023-08-31T04:30:45;99730.44;;;16.94;90.20
28306;BME280;7516;43.570;1.448;2023-08-31T04:33:13;99732.06;;;16.95;90.20
28306;BME280;7516;43.570;1.448;2023-08-31T04:35:42;99727.38;;;16.97;90.16
28306;BME280;7516;43.570;1.448;2023-08-31T04:38:10;99739.56;;;16.98;90.03
28306;BME280;7516;43.570;1.448;2023-08-31T04:40:38;99747.31;;;17.00;90.55
28306;BME280;7516;43.570;1.448;2023-08-31T04:43:05;99741.19;;;16.99;90.27
28306;BME280;7516;43.570;1.448;2023-08-31T04:45:33;99740.38;;;16.99;90.59
28306;BME280;7516;43.570;1.448;2023-08-31T04:48:00;99739.56;;;16.98;90.06
28306;BME280;7516;43.570;1.448;2023-08-31T04:50:30;99753.88;;;16.97;90.20
28306;BME280;7516;43.570;1.448;2023-08-31T04:52:58;99747.75;;;16.97;89.88
28306;BME280;7516;43.570;1.448;2023-08-31T04:55:25;99754.69;;;16.91;89.99
28306;BME280;7516;43.570;1.448;2023-08-31T04:57:52;99749.84;;;16.88;90.31
28306;BME280;7516;43.570;1.448;2023-08-31T05:00:20;99758.59;;;16.82;89.92
28306;BME280;7516;43.570;1.448;2023-08-31T05:02:47;99752.34;;;16.76;90.10
28306;BME280;7516;43.570;1.448;2023-08-31T05:05:15;99762.50;;;16.73;90.71
28306;BME280;7516;43.570;1.448;2023-08-31T05:07:45;99759.28;;;16.71;90.33
28306;BME280;7516;43.570;1.448;2023-08-31T05:10:13;99754.00;;;16.71;90.53
28306;BME280;7516;43.570;1.448;2023-08-31T05:12:41;99762.13;;;16.69;90.63
28306;BME280;7516;43.570;1.448;2023-08-31T05:15:09;99770.28;;;16.68;90.20
28306;BME280;7516;43.570;1.448;2023-08-31T05:17:36;99762.16;;;16.63;90.64
28306;BME280;7516;43.570;1.448;2023-08-31T05:20:05;99763.97;;;16.55;90.74
28306;BME280;7516;43.570;1.448;2023-08-31T05:22:34;99768.91;;;16.52;90.70
28306;BME280;7516;43.570;1.448;2023-08-31T05:25:03;99770.72;;;16.51;90.96
28306;BME280;7516;43.570;1.448;2023-08-31T05:27:32;99776.03;;;16.51;90.63
28306;BME280;7516;43.570;1.448;2023-08-31T05:29:59;99784.97;;;16.50;90.73
28306;BME280;7516;43.570;1.448;2023-08-31T05:32:28;99790.47;;;16.49;91.22
28306;BME280;7516;43.570;1.448;2023-08-31T05:34:56;99783.16;;;16.44;91.22
28306;BME280;7516;43.570;1.448;2023-08-31T05:37:24;99789.88;;;16.40;91.07
28306;BME280;7516;43.570;1.448;2023-08-31T05:39:52;99793.94;;;16.36;91.16
28306;BME280;7516;43.570;1.448;2023-08-31T05:42:20;99791.75;;;16.33;91.33
28306;BME280;7516;43.570;1.448;2023-08-31T05:44:48;99786.03;;;16.30;91.31
28306;BME280;7516;43.570;1.448;2023-08-31T05:47:15;99778.91;;;16.30;91.55
28306;BME280;7516;43.570;1.448;2023-08-31T05:49:43;99782.78;;;16.28;91.29
28306;BME280;7516;43.570;1.448;2023-08-31T05:52:10;99789.69;;;16.29;91.16
28306;BME280;7516;43.570;1.448;2023-08-31T05:54:38;99780.94;;;16.28;91.72
28306;BME280;7516;43.570;1.448;2023-08-31T05:57:05;99790.50;;;16.29;91.14
28306;BME280;7516;43.570;1.448;2023-08-31T05:59:34;99788.06;;;16.28;91.26
28306;BME280;7516;43.570;1.448;2023-08-31T06:02:02;99793.59;;;16.26;91.11
28306;BME280;7516;43.570;1.448;2023-08-31T06:04:30;99796.00;;;16.28;91.61
28306;BME280;7516;43.570;1.448;2023-08-31T06:06:58;99793.97;;;16.30;91.47
28306;BME280;7516;43.570;1.448;2023-08-31T06:09:25;99804.97;;;16.33;91.52
28306;BME280;7516;43.570;1.448;2023-08-31T06:11:53;99798.66;;;16.34;91.54
28306;BME280;7516;43.570;1.448;2023-08-31T06:14:20;99809.63;;;16.38;91.69
28306;BME280;7516;43.570;1.448;2023-08-31T06:16:49;99803.09;;;16.40;92.17
28306;BME280;7516;43.570;1.448;2023-08-31T06:19:18;99808.00;;;16.43;91.99
28306;BME280;7516;43.570;1.448;2023-08-31T06:21:46;99803.28;;;16.45;92.06
28306;BME280;7516;43.570;1.448;2023-08-31T06:24:14;99803.91;;;16.47;92.16
28306;BME280;7516;43.570;1.448;2023-08-31T06:26:42;99809.81;;;16.49;91.92
28306;BME280;7516;43.570;1.448;2023-08-31T06:29:09;99809.16;;;16.54;91.79
28306;BME280;7516;43.570;1.448;2023-08-31T06:31:37;99803.66;;;16.55;91.68
28306;BME280;7516;43.570;1.448;2023-08-31T06:34:06;99800.63;;;16.59;91.66
28306;BME280;7516;43.570;1.448;2023-08-31T06:36:33;99798.41;;;16.62;91.56
28306;BME280;7516;43.570;1.448;2023-08-31T06:39:01;99800.81;;;16.64;91.86
28306;BME280;7516;43.570;1.448;2023-08-31T06:41:30;99802.03;;;16.68;91.44
28306;BME280;7516;43.570;1.448;2023-08-31T06:43:57;99806.09;;;16.77;91.46
28306;BME280;7516;43.570;1.448;2023-08-31T06:46:25;99798.91;;;16.84;91.96
28306;BME280;7516;43.570;1.448;2023-08-31T06:48:52;99802.53;;;16.96;92.04
28306;BME280;7516;43.570;1.448;2023-08-31T06:51:21;99799.19;;;17.07;91.52
28306;BME280;7516;43.570;1.448;2023-08-31T06:53:49;99803.84;;;17.18;91.36
28306;BME280;7516;43.570;1.448;2023-08-31T06:56:16;99818.03;;;17.30;91.19
28306;BME280;7516;43.570;1.448;2023-08-31T06:58:43;99836.75;;;17.36;90.71
28306;BME280;7516;43.570;1.448;2023-08-31T07:01:13;99829.44;;;17.31;90.29
28306;BME280;7516;43.570;1.448;2023-08-31T07:03:40;99816.38;;;17.36;90.72
28306;BME280;7516;43.570;1.448;2023-08-31T07:06:08;99823.25;;;17.44;90.46
28306;BME280;7516;43.570;1.448;2023-08-31T07:08:37;99835.06;;;17.48;90.18
28306;BME280;7516;43.570;1.448;2023-08-31T07:11:06;99834.84;;;17.49;90.01
28306;BME280;7516;43.570;1.448;2023-08-31T07:13:34;99839.50;;;17.54;89.89
28306;BME280;7516;43.570;1.448;2023-08-31T07:16:01;99838.63;;;17.60;89.37
28306;BME280;7516;43.570;1.448;2023-08-31T07:18:29;99843.31;;;17.64;89.07
28306;BME280;7516;43.570;1.448;2023-08-31T07:20:56;99842.66;;;17.69;89.12
28306;BME280;7516;43.570;1.448;2023-08-31T07:23:24;99839.81;;;17.71;88.91
28306;BME280;7516;43.570;1.448;2023-08-31T07:25:56;99845.94;;;17.71;88.72
28306;BME280;7516;43.570;1.448;2023-08-31T07:28:23;99839.19;;;17.68;88.45
28306;BME280;7516;43.570;1.448;2023-08-31T07:31:01;99845.38;;;17.62;88.64
28306;BME280;7516;43.570;1.448;2023-08-31T07:33:29;99849.22;;;17.60;88.42
28306;BME280;7516;43.570;1.448;2023-08-31T07:35:57;99843.94;;;17.60;88.04
28306;BME280;7516;43.570;1.448;2023-08-31T07:38:26;99845.38;;;17.62;88.21
28306;BME280;7516;43.570;1.448;2023-08-31T07:40:55;99841.50;;;17.65;87.93
28306;BME280;7516;43.570;1.448;2023-08-31T07:43:22;99838.56;;;17.73;88.27
28306;BME280;7516;43.570;1.448;2023-08-31T07:45:50;99845.88;;;17.78;87.88
28306;BME280;7516;43.570;1.448;2023-08-31T07:48:18;99846.25;;;17.81;87.82
28306;BME280;7516;43.570;1.448;2023-08-31T07:50:45;99839.28;;;17.87;87.36
28306;BME280;7516;43.570;1.448;2023-08-31T07:53:13;99844.97;;;17.90;87.73
28306;BME280;7516;43.570;1.448;2023-08-31T07:55:41;99846.16;;;17.94;87.35
28306;BME280;7516;43.570;1.448;2023-08-31T07:58:09;99838.78;;;17.96;87.13
28306;BME280;7516;43.570;1.448;2023-08-31T08:00:37;99848.16;;;17.99;87.13
28306;BME280;7516;43.570;1.448;2023-08-31T08:03:05;99852.22;;;18.01;87.02
28306;BME280;7516;43.570;1.448;2023-08-31T08:05:32;99855.47;;;18.03;86.69
28306;BME280;7516;43.570;1.448;2023-08-31T08:08:00;99844.41;;;18.07;86.91
28306;BME280;7516;43.570;1.448;2023-08-31T08:10:27;99850.13;;;18.10;86.64
28306;BME280;7516;43.570;1.448;2023-08-31T08:12:55;99845.97;;;18.14;86.50
28306;BME280;7516;43.570;1.448;2023-08-31T08:15:24;99848.81;;;18.19;86.46
28306;BME280;7516;43.570;1.448;2023-08-31T08:17:51;99845.06;;;18.27;86.08
28306;BME280;7516;43.570;1.448;2023-08-31T08:20:19;99850.50;;;18.32;86.26
28306;BME280;7516;43.570;1.448;2023-08-31T08:22:47;99859.22;;;18.39;85.98
28306;BME280;7516;43.570;1.448;2023-08-31T08:25:18;99856.13;;;18.42;85.78
28306;BME280;7516;43.570;1.448;2023-08-31T08:27:46;99856.88;;;18.49;85.83
28306;BME280;7516;43.570;1.448;2023-08-31T08:30:14;99856.84;;;18.56;85.64
28306;BME280;7516;43.570;1.448;2023-08-31T08:32:42;99859.44;;;18.62;85.39
28306;BME280;7516;43.570;1.448;2023-08-31T08:35:10;99859.56;;;18.67;85.29
28306;BME280;7516;43.570;1.448;2023-08-31T08:37:37;99862.16;;;18.74;84.92
28306;BME280;7516;43.570;1.448;2023-08-31T08:40:06;99863.72;;;18.82;84.77
28306;BME280;7516;43.570;1.448;2023-08-31T08:42:38;99870.19;;;18.86;84.06
28306;BME280;7516;43.570;1.448;2023-08-31T08:45:12;99866.94;;;18.84;83.86
28306;BME280;7516;43.570;1.448;2023-08-31T08:47:43;99866.94;;;18.84;83.91
28306;BME280;7516;43.570;1.448;2023-08-31T08:50:12;99858.53;;;18.87;83.72
28306;BME280;7516;43.570;1.448;2023-08-31T08:52:40;99868.06;;;18.94;83.50
28306;BME280;7516;43.570;1.448;2023-08-31T08:55:08;99867.97;;;19.01;83.32
28306;BME280;7516;43.570;1.448;2023-08-31T08:57:36;99869.28;;;19.10;82.95
28306;BME280;7516;43.570;1.448;2023-08-31T09:00:06;99869.66;;;19.13;82.48
28306;BME280;7516;43.570;1.448;2023-08-31T09:02:33;99870.03;;;19.17;82.39
28306;BME280;7516;43.570;1.448;2023-08-31T09:05:03;99871.88;;;19.16;81.85
28306;BME280;7516;43.570;1.448;2023-08-31T09:07:33;99865.28;;;19.19;81.86
28306;BME280;7516;43.570;1.448;2023-08-31T09:10:02;99863.50;;;19.31;81.83
28306;BME280;7516;43.570;1.448;2023-08-31T09:12:30;99865.41;;;19.42;81.57
28306;BME280;7516;43.570;1.448;2023-08-31T09:14:58;99861.53;;;19.57;81.31
28306;BME280;7516;43.570;1.448;2023-08-31T09:17:26;99860.41;;;19.64;80.91
28306;BME280;7516;43.570;1.448;2023-08-31T09:20:07;99874.34;;;19.78;80.74
28306;BME280;7516;43.570;1.448;2023-08-31T09:22:35;99871.69;;;19.89;80.55
28306;BME280;7516;43.570;1.448;2023-08-31T09:25:03;99871.13;;;19.99;79.92
28306;BME280;7516;43.570;1.448;2023-08-31T09:27:31;99867.88;;;19.97;79.64
28306;BME280;7516;43.570;1.448;2023-08-31T09:30:05;99876.56;;;20.04;79.40
28306;BME280;7516;43.570;1.448;2023-08-31T09:32:33;99869.16;;;20.06;78.75
28306;BME280;7516;43.570;1.448;2023-08-31T09:35:01;99869.63;;;20.03;78.57
28306;BME280;7516;43.570;1.448;2023-08-31T09:37:32;99866.28;;;20.08;78.47
28306;BME280;7516;43.570;1.448;2023-08-31T09:40:02;99863.97;;;20.11;78.45
28306;BME280;7516;43.570;1.448;2023-08-31T09:42:37;99869.97;;;20.18;78.08
28306;BME280;7516;43.570;1.448;2023-08-31T09:45:05;99870.81;;;20.31;77.73
28306;BME280;7516;43.570;1.448;2023-08-31T09:47:33;99876.50;;;20.46;77.66
28306;BME280;7516;43.570;1.448;2023-08-31T09:50:02;99876.38;;;20.64;77.14
28306;BME280;7516;43.570;1.448;2023-08-31T09:52:32;99868.69;;;20.79;76.75
28306;BME280;7516;43.570;1.448;2023-08-31T09:55:02;99870.31;;;20.92;76.24
28306;BME280;7516;43.570;1.448;2023-08-31T09:57:30;99868.16;;;21.06;75.79
28306;BME280;7516;43.570;1.448;2023-08-31T09:59:59;99869.06;;;21.11;75.56
28306;BME280;7516;43.570;1.448;2023-08-31T10:02:27;99859.22;;;21.12;75.15
28306;BME280;7516;43.570;1.448;2023-08-31T10:04:58;99863.41;;;21.08;74.95
28306;BME280;7516;43.570;1.448;2023-08-31T10:07:26;99862.97;;;21.11;74.75
28306;BME280;7516;43.570;1.448;2023-08-31T10:09:57;99856.91;;;21.15;74.49
28306;BME280;7516;43.570;1.448;2023-08-31T10:12:26;99849.28;;;21.19;74.21
28306;BME280;7516;43.570;1.448;2023-08-31T10:14:55;99853.88;;;21.23;73.94
28306;BME280;7516;43.570;1.448;2023-08-31T10:17:23;99853.53;;;21.20;73.36
28306;BME280;7516;43.570;1.448;2023-08-31T10:19:52;99850.19;;;21.13;73.10
28306;BME280;7516;43.570;1.448;2023-08-31T10:22:20;99844.63;;;21.14;72.78
28306;BME280;7516;43.570;1.448;2023-08-31T10:24:58;99841.84;;;21.21;72.14
28306;BME280;7516;43.570;1.448;2023-08-31T10:27:27;99836.38;;;21.27;71.85
28306;BME280;7516;43.570;1.448;2023-08-31T10:29:55;99840.66;;;21.28;71.43
28306;BME280;7516;43.570;1.448;2023-08-31T10:32:22;99837.75;;;21.30;71.44
28306;BME280;7516;43.570;1.448;2023-08-31T10:35:05;99835.22;;;21.23;70.82
28306;BME280;7516;43.570;1.448;2023-08-31T10:37:34;99829.00;;;21.18;70.49
28306;BME280;7516;43.570;1.448;2023-08-31T10:40:10;99832.00;;;21.10;70.45
28306;BME280;7516;43.570;1.448;2023-08-31T10:42:45;99829.22;;;21.04;70.09
28306;BME280;7516;43.570;1.448;2023-08-31T10:45:13;99821.47;;;21.03;69.86
28306;BME280;7516;43.570;1.448;2023-08-31T10:47:41;99818.50;;;20.99;69.94
28306;BME280;7516;43.570;1.448;2023-08-31T10:50:17;99824.88;;;20.98;69.79
28306;BME280;7516;43.570;1.448;2023-08-31T10:52:45;99819.63;;;21.03;69.98
28306;BME280;7516;43.570;1.448;2023-08-31T10:55:14;99815.44;;;21.08;69.37
28306;BME280;7516;43.570;1.448;2023-08-31T10:57:42;99813.81;;;21.18;69.32
28306;BME280;7516;43.570;1.448;2023-08-31T11:00:10;99818.59;;;21.33;69.19
28306;BME280;7516;43.570;1.448;2023-08-31T11:02:43;99809.97;;;21.43;68.63
28306;BME280;7516;43.570;1.448;2023-08-31T11:05:13;99804.25;;;21.51;68.28
28306;BME280;7516;43.570;1.448;2023-08-31T11:07:42;99803.28;;;21.57;68.46
28306;BME280;7516;43.570;1.448;2023-08-31T11:10:14;99810.63;;;21.66;67.93
28306;BME280;7516;43.570;1.448;2023-08-31T11:12:44;99814.13;;;21.67;67.52
28306;BME280;7516;43.570;1.448;2023-08-31T11:15:13;99812.50;;;21.66;67.21
28306;BME280;7516;43.570;1.448;2023-08-31T11:17:41;99806.22;;;21.72;67.18
28306;BME280;7516;43.570;1.448;2023-08-31T11:20:13;99794.22;;;21.74;66.86
28306;BME280;7516;43.570;1.448;2023-08-31T11:22:41;99798.75;;;21.74;66.55
28306;BME280;7516;43.570;1.448;2023-08-31T11:25:11;99792.38;;;21.75;66.53
28306;BME280;7516;43.570;1.448;2023-08-31T11:27:40;99794.47;;;21.73;66.18
28306;BME280;7516;43.570;1.448;2023-08-31T11:30:17;99785.97;;;21.76;66.12
28306;BME280;7516;43.570;1.448;2023-08-31T11:32:46;99793.00;;;21.82;66.05
28306;BME280;7516;43.570;1.448;2023-08-31T11:35:15;99790.19;;;21.89;66.08
28306;BME280;7516;43.570;1.448;2023-08-31T11:37:43;99781.69;;;21.92;65.78
28306;BME280;7516;43.570;1.448;2023-08-31T11:40:12;99787.13;;;21.97;65.38
28306;BME280;7516;43.570;1.448;2023-08-31T11:42:43;99789.78;;;21.97;65.33
28306;BME280;7516;43.570;1.448;2023-08-31T11:45:11;99792.44;;;21.97;65.19
28306;BME280;7516;43.570;1.448;2023-08-31T11:47:41;99783.88;;;21.95;64.55
28306;BME280;7516;43.570;1.448;2023-08-31T11:50:09;99788.97;;;21.96;64.38
28306;BME280;7516;43.570;1.448;2023-08-31T11:52:38;99785.00;;;21.99;64.39
28306;BME280;7516;43.570;1.448;2023-08-31T11:55:11;99783.50;;;22.03;64.15
28306;BME280;7516;43.570;1.448;2023-08-31T11:57:39;99781.97;;;22.07;64.00
28306;BME280;7516;43.570;1.448;2023-08-31T12:00:09;99788.16;;;22.12;63.54
28306;BME280;7516;43.570;1.448;2023-08-31T12:02:37;99785.31;;;22.19;63.39
28306;BME280;7516;43.570;1.448;2023-08-31T12:05:06;99787.03;;;22.25;63.30
28306;BME280;7516;43.570;1.448;2023-08-31T12:07:39;99784.34;;;22.25;63.08
28306;BME280;7516;43.570;1.448;2023-08-31T12:10:08;99775.59;;;22.30;62.93
28306;BME280;7516;43.570;1.448;2023-08-31T12:12:36;99778.06;;;22.36;62.48
28306;BME280;7516;43.570;1.448;2023-08-31T12:15:06;99778.31;;;22.35;62.13
28306;BME280;7516;43.570;1.448;2023-08-31T12:17:37;99775.09;;;22.33;62.31
28306;BME280;7516;43.570;1.448;2023-08-31T12:20:07;99783.41;;;22.36;62.07
28306;BME280;7516;43.570;1.448;2023-08-31T12:22:36;99773.63;;;22.42;61.60
28306;BME280;7516;43.570;1.448;2023-08-31T12:25:04;99778.44;;;22.45;61.68
28306;BME280;7516;43.570;1.448;2023-08-31T12:27:31;99779.34;;;22.50;61.38
28306;BME280;7516;43.570;1.448;2023-08-31T12:29:59;99776.47;;;22.57;61.28
28306;BME280;7516;43.570;1.448;2023-08-31T12:32:28;99780.09;;;22.68;61.13
28306;BME280;7516;43.570;1.448;2023-08-31T12:34:55;99778.50;;;22.72;60.82
28306;BME280;7516;43.570;1.448;2023-08-31T12:37:22;99771.06;;;22.74;60.39
28306;BME280;7516;43.570;1.448;2023-08-31T12:39:50;99772.72;;;22.75;60.28
28306;BME280;7516;43.570;1.448;2023-08-31T12:42:17;99766.31;;;22.76;59.82
28306;BME280;7516;43.570;1.448;2023-08-31T12:44:45;99768.97;;;22.76;59.83
28306;BME280;7516;43.570;1.448;2023-08-31T12:47:12;99769.59;;;22.83;59.70
28306;BME280;7516;43.570;1.448;2023-08-31T12:49:42;99768.91;;;22.93;59.72
28306;BME280;7516;43.570;1.448;2023-08-31T12:52:09;99768.13;;;22.97;59.21
28306;BME280;7516;43.570;1.448;2023-08-31T12:54:36;99761.22;;;23.01;59.05
28306;BME280;7516;43.570;1.448;2023-08-31T12:57:04;99759.66;;;23.05;58.65
28306;BME280;7516;43.570;1.448;2023-08-31T12:59:32;99759.75;;;23.15;58.37
28306;BME280;7516;43.570;1.448;2023-08-31T13:01:59;99767.84;;;23.20;57.98
28306;BME280;7516;43.570;1.448;2023-08-31T13:04:29;99759.28;;;23.23;57.54
28306;BME280;7516;43.570;1.448;2023-08-31T13:06:58;99756.38;;;23.25;57.18
28306;BME280;7516;43.570;1.448;2023-08-31T13:09:26;99750.47;;;23.23;56.64
28306;BME280;7516;43.570;1.448;2023-08-31T13:11:54;99751.81;;;23.25;56.38
28306;BME280;7516;43.570;1.448;2023-08-31T13:14:21;99743.88;;;23.31;56.00
28306;BME280;7516;43.570;1.448;2023-08-31T13:16:49;99742.59;;;23.38;55.93